Fortuna, California
Current Conditions -  °F | °C
As of 10:50 PM on Friday 24 Oct 2014 (Local Time) from KFOT Reporting Station
Broken Clouds Broken Clouds  
Wind Chill: 64°   Ceiling: 4300
Heat Index: 64°   Visibility: 10mi
Dew Point: 50°   Wind: 23mph
Humidity: 59%   Direction: 140°SE
Pressure: 29.69"   Gusts: 32mph
Location:  40.6°N, 124.15°W
Report Text: KFOT 250550Z AUTO 14020G28KT 10SM BKN043 18/10 A2969 RMK AO1
Loading
Personal Weather Stations






























Interactive Weather Map
Tropical Storm Tracking
New forecast layout! Learn more

10-Day Weather Forecast

Advertisements
Track Severe Weather on mobile